Time;durP1;ratioP1;P1;durP2;ratioP2;P2;SDS_P1;SDS_P2;PMS_P1;PMS_P2;Temp;Humidity;BMP_temperature;BMP_pressure;BME280_temperature;BME280_humidity;BME280_pressure;Samples;Min_cycle;Max_cycle;Signal;HPM_P1;HPM_P2
2022/06/11 00:01:36;;;;;;;;;;;12.30;99.90;;;;;;4967306;28;25145;-63
2022/06/11 00:04:08;;;;;;;;;;;12.20;99.90;;;;;;4961459;28;30136;-63
2022/06/11 00:06:37;;;;;;;;;;;12.10;99.90;;;;;;4974479;28;26114;-63
2022/06/11 00:09:04;;;;;;;;;;;12.10;99.90;;;;;;4967086;28;29137;-64
2022/06/11 00:11:31;;;;;;;;;;;12.00;99.90;;;;;;4969710;28;28119;-63
2022/06/11 00:13:58;;;;;;;;;;;12.00;99.90;;;;;;4967741;28;29084;-62
2022/06/11 00:16:27;;;;;;;;;;;11.90;99.90;;;;;;4972251;28;29150;-62
2022/06/11 00:18:57;;;;;;;;;;;11.90;99.90;;;;;;4973894;28;27063;-63
2022/06/11 00:21:25;;;;;;;;;;;11.80;99.90;;;;;;4972840;28;25068;-63
2022/06/11 00:23:52;;;;;;;;;;;11.80;99.90;;;;;;4965415;28;26146;-63
2022/06/11 00:26:20;;;;;;;;;;;11.80;99.90;;;;;;4970147;28;27097;-63
2022/06/11 00:28:50;;;;;;;;;;;11.80;99.90;;;;;;4968090;28;28078;-63
2022/06/11 00:31:18;;;;;;;;;;;11.80;99.90;;;;;;4964611;28;27061;-63
2022/06/11 00:33:47;;;;;;;;;;;11.70;99.90;;;;;;4966890;28;28052;-63
2022/06/11 00:36:16;;;;;;;;;;;11.70;99.90;;;;;;4962370;28;25116;-63
2022/06/11 00:38:43;;;;;;;;;;;11.70;99.90;;;;;;4959854;28;27134;-63
2022/06/11 00:41:10;;;;;;;;;;;11.60;99.90;;;;;;4962153;28;26082;-63
2022/06/11 00:43:39;;;;;;;;;;;11.60;99.90;;;;;;4964557;28;25068;-65
2022/06/11 00:46:08;;;;;;;;;;;11.60;99.90;;;;;;4971366;28;28064;-63
2022/06/11 00:48:38;;;;;;;;;;;11.60;99.90;;;;;;4968889;28;25080;-63
2022/06/11 00:51:12;;;;;;;;;;;11.60;99.90;;;;;;4969677;28;28085;-63
2022/06/11 00:53:44;;;;;;;;;;;11.60;99.90;;;;;;4959241;28;28139;-63
2022/06/11 00:56:21;;;;;;;;;;;11.70;99.90;;;;;;4967244;28;28106;-63
2022/06/11 00:58:49;;;;;;;;;;;11.70;99.90;;;;;;4965152;28;26052;-63
2022/06/11 01:01:18;;;;;;;;;;;11.60;99.90;;;;;;4964620;28;25114;-63
2022/06/11 01:03:46;;;;;;;;;;;11.60;99.90;;;;;;4956408;28;28083;-63
2022/06/11 01:06:31;;;;;;;;;;;11.70;99.90;;;;;;4965175;28;25089;-64
2022/06/11 01:09:02;;;;;;;;;;;11.60;99.90;;;;;;4968991;28;30114;-63
2022/06/11 01:11:29;;;;;;;;;;;11.50;99.90;;;;;;4964247;28;30074;-63
2022/06/11 01:14:14;;;;;;;;;;;11.40;99.90;;;;;;4968204;28;33078;-63
2022/06/11 01:16:53;;;;;;;;;;;11.40;99.90;;;;;;4961401;28;27102;-63
2022/06/11 01:19:26;;;;;;;;;;;11.40;99.90;;;;;;4959838;28;33121;-63
2022/06/11 01:22:25;;;;;;;;;;;11.40;99.90;;;;;;4969787;28;27115;-63
2022/06/11 01:24:55;;;;;;;;;;;11.30;99.90;;;;;;4965574;28;26113;-64
2022/06/11 01:27:27;;;;;;;;;;;11.20;99.90;;;;;;4965167;28;30102;-63
2022/06/11 01:29:57;;;;;;;;;;;11.20;99.90;;;;;;4967071;28;29112;-63
2022/06/11 01:32:33;;;;;;;;;;;11.10;99.90;;;;;;4961986;28;25053;-63
2022/06/11 01:34:59;;;;;;;;;;;11.10;99.90;;;;;;4963285;28;29078;-63
2022/06/11 01:37:29;;;;;;;;;;;11.00;99.90;;;;;;4961206;28;30104;-63
2022/06/11 01:39:59;;;;;;;;;;;11.00;99.90;;;;;;4966845;28;27060;-63
2022/06/11 01:42:46;;;;;;;;;;;11.00;99.90;;;;;;4970312;28;27102;-63
2022/06/11 01:45:33;;;;;;;;;;;11.00;99.90;;;;;;4962038;28;28137;-64
2022/06/11 01:48:01;;;;;;;;;;;10.90;99.90;;;;;;4958135;28;28079;-63
2022/06/11 01:50:28;;;;;;;;;;;10.90;99.90;;;;;;4966303;28;28103;-63
2022/06/11 01:53:14;;;;;;;;;;;10.90;99.90;;;;;;4962310;28;29065;-63
2022/06/11 01:55:47;;;;;;;;;;;10.90;99.90;;;;;;4962116;28;26136;-64
2022/06/11 01:58:16;;;;;;;;;;;10.80;99.90;;;;;;4965665;28;29101;-63
2022/06/11 02:00:47;;;;;;;;;;;10.70;99.90;;;;;;4963299;28;33057;-63
2022/06/11 02:03:14;;;;;;;;;;;10.70;99.90;;;;;;4960374;28;29115;-63
2022/06/11 02:05:56;;;;;;;;;;;10.60;99.90;;;;;;4962224;28;29087;-63
2022/06/11 02:08:41;;;;;;;;;;;10.60;99.90;;;;;;4948063;28;29070;-63
2022/06/11 02:11:18;;;;;;;;;;;10.50;99.90;;;;;;4965604;28;38101;-64
2022/06/11 02:13:44;;;;;;;;;;;10.50;99.90;;;;;;4962776;28;26089;-63
2022/06/11 02:16:20;;;;;;;;;;;10.50;99.90;;;;;;4967012;28;26072;-65
2022/06/11 02:18:48;;;;;;;;;;;10.60;99.90;;;;;;4964417;28;32103;-64
2022/06/11 02:21:17;;;;;;;;;;;10.70;99.90;;;;;;4942749;28;25101;-63
2022/06/11 02:23:49;;;;;;;;;;;10.70;99.90;;;;;;4968079;28;32135;-63
2022/06/11 02:26:19;;;;;;;;;;;10.70;99.90;;;;;;4961177;28;25084;-63
2022/06/11 02:28:47;;;;;;;;;;;10.80;99.90;;;;;;4968588;28;28053;-63
2022/06/11 02:31:19;;;;;;;;;;;10.80;99.90;;;;;;4957148;28;31122;-63
2022/06/11 02:33:45;;;;;;;;;;;10.80;99.90;;;;;;4963593;28;27071;-63
2022/06/11 02:36:18;;;;;;;;;;;10.90;99.90;;;;;;4966771;28;27066;-63
2022/06/11 02:38:45;;;;;;;;;;;10.90;99.90;;;;;;4965236;28;26094;-63
2022/06/11 02:41:20;;;;;;;;;;;10.90;99.90;;;;;;4966690;28;29130;-63
2022/06/11 02:43:47;;;;;;;;;;;10.80;99.90;;;;;;4959675;28;27083;-63
2022/06/11 02:49:00;;;;;;;;;;;10.90;99.90;;;;;;4958562;28;29066;-63
2022/06/11 02:51:28;;;;;;;;;;;10.90;99.90;;;;;;4961502;28;27046;-63
2022/06/11 02:53:55;;;;;;;;;;;10.80;99.90;;;;;;4966340;28;25114;-63
2022/06/11 02:56:21;;;;;;;;;;;10.70;99.90;;;;;;4961478;28;29082;-63
2022/06/11 02:58:48;;;;;;;;;;;10.70;99.90;;;;;;4961298;28;29105;-63
2022/06/11 03:01:18;;;;;;;;;;;10.60;99.90;;;;;;4958706;28;25065;-63
2022/06/11 03:03:45;;;;;;;;;;;10.60;99.90;;;;;;4966220;28;29049;-63
2022/06/11 03:06:11;;;;;;;;;;;10.50;99.90;;;;;;4972476;28;28060;-63
2022/06/11 03:08:38;;;;;;;;;;;10.60;99.90;;;;;;4965478;28;25140;-63
2022/06/11 03:11:05;;;;;;;;;;;10.70;99.90;;;;;;4957752;28;25060;-63
2022/06/11 03:13:32;;;;;;;;;;;10.80;99.90;;;;;;4969709;28;27119;-63
2022/06/11 03:16:00;;;;;;;;;;;10.90;99.90;;;;;;4972121;28;25074;-63
2022/06/11 03:18:28;;;;;;;;;;;11.10;99.90;;;;;;4965476;28;32167;-63
2022/06/11 03:20:54;;;;;;;;;;;11.20;99.90;;;;;;4971032;28;28108;-63
2022/06/11 03:23:23;;;;;;;;;;;11.40;99.90;;;;;;4965914;28;26142;-63
2022/06/11 03:25:50;;;;;;;;;;;11.40;99.90;;;;;;4966223;28;25091;-63
2022/06/11 03:28:19;;;;;;;;;;;11.60;99.90;;;;;;4969773;28;28098;-63
2022/06/11 03:30:46;;;;;;;;;;;11.70;99.90;;;;;;4957465;28;28079;-62
2022/06/11 03:33:14;;;;;;;;;;;11.70;99.90;;;;;;4969597;28;27106;-62
2022/06/11 03:35:41;;;;;;;;;;;11.80;99.90;;;;;;4961228;28;28155;-62
2022/06/11 03:38:08;;;;;;;;;;;11.90;99.90;;;;;;4957133;28;30101;-63
2022/06/11 03:40:35;;;;;;;;;;;12.00;99.90;;;;;;4966542;28;30187;-63
2022/06/11 03:43:02;;;;;;;;;;;12.10;99.90;;;;;;4966547;28;29069;-63
2022/06/11 03:45:29;;;;;;;;;;;12.20;99.90;;;;;;4972215;28;31106;-63
2022/06/11 03:47:56;;;;;;;;;;;12.30;99.90;;;;;;4972830;28;33105;-63
2022/06/11 03:50:28;;;;;;;;;;;12.30;99.90;;;;;;4966284;28;29062;-63
2022/06/11 03:52:55;;;;;;;;;;;12.40;99.90;;;;;;4966257;28;29157;-64
2022/06/11 03:55:22;;;;;;;;;;;12.40;99.90;;;;;;4970879;28;25071;-63
2022/06/11 03:57:49;;;;;;;;;;;12.50;99.90;;;;;;4972549;28;26057;-63
2022/06/11 04:01:14;;;;;;;;;;;12.60;99.90;;;;;;4965834;28;26112;-63
2022/06/11 04:03:05;;;;;;;;;;;12.70;99.90;;;;;;4970556;28;30099;-63
2022/06/11 04:05:33;;;;;;;;;;;12.80;99.90;;;;;;4964345;28;29049;-63
2022/06/11 04:07:59;;;;;;;;;;;12.90;99.90;;;;;;4971347;28;28092;-63
2022/06/11 04:10:26;;;;;;;;;;;13.00;99.90;;;;;;4973175;28;25110;-63
2022/06/11 04:12:53;;;;;;;;;;;13.10;99.90;;;;;;4965263;28;27112;-63
2022/06/11 04:15:23;;;;;;;;;;;13.30;99.90;;;;;;4969991;28;29077;-63
2022/06/11 04:17:50;;;;;;;;;;;13.40;99.90;;;;;;4966345;28;29115;-63
2022/06/11 04:20:19;;;;;;;;;;;13.50;99.90;;;;;;4963781;28;29115;-63
2022/06/11 04:22:46;;;;;;;;;;;13.60;99.90;;;;;;4969444;28;25083;-63
2022/06/11 04:25:17;;;;;;;;;;;13.70;99.90;;;;;;4967402;28;26066;-63
2022/06/11 04:27:44;;;;;;;;;;;13.80;99.90;;;;;;4963792;28;25084;-63
2022/06/11 04:30:13;;;;;;;;;;;13.90;99.90;;;;;;4971620;28;27137;-63
2022/06/11 04:32:42;;;;;;;;;;;13.90;99.90;;;;;;4962700;28;26130;-63
2022/06/11 04:35:11;;;;;;;;;;;14.10;99.90;;;;;;4972381;28;25027;-63
2022/06/11 04:37:38;;;;;;;;;;;14.20;99.90;;;;;;4969248;28;33066;-63
2022/06/11 04:40:07;;;;;;;;;;;14.30;99.90;;;;;;4968480;28;27077;-63
2022/06/11 04:42:34;;;;;;;;;;;14.40;99.90;;;;;;4964144;28;29059;-63
2022/06/11 04:45:01;;;;;;;;;;;14.40;99.90;;;;;;4964410;28;32189;-63
2022/06/11 04:47:29;;;;;;;;;;;14.40;99.90;;;;;;4972671;28;27066;-63
2022/06/11 04:50:00;;;;;;;;;;;14.50;99.90;;;;;;4973033;28;27069;-63
2022/06/11 04:52:27;;;;;;;;;;;14.60;99.90;;;;;;4970618;28;27091;-63
2022/06/11 04:54:53;;;;;;;;;;;14.70;99.90;;;;;;4964839;28;26100;-63
2022/06/11 04:57:21;;;;;;;;;;;14.80;99.90;;;;;;4967508;28;26145;-63
2022/06/11 04:59:48;;;;;;;;;;;15.00;99.90;;;;;;4971067;28;28101;-63
2022/06/11 05:02:14;;;;;;;;;;;15.00;99.90;;;;;;4969296;28;27100;-63
2022/06/11 05:04:41;;;;;;;;;;;15.10;99.90;;;;;;4969310;28;28090;-63
2022/06/11 05:07:08;;;;;;;;;;;15.20;99.90;;;;;;4968926;28;28084;-63
2022/06/11 05:09:35;;;;;;;;;;;15.10;99.90;;;;;;4970717;28;26121;-63
2022/06/11 05:12:02;;;;;;;;;;;15.10;99.90;;;;;;4974175;28;25115;-63
2022/06/11 05:14:28;;;;;;;;;;;15.00;99.90;;;;;;4965842;28;26083;-63
2022/06/11 05:16:56;;;;;;;;;;;14.90;99.90;;;;;;4969895;28;25068;-63
2022/06/11 05:19:23;;;;;;;;;;;15.10;99.90;;;;;;4970926;28;25112;-63
2022/06/11 05:21:50;;;;;;;;;;;16.40;99.90;;;;;;4971663;28;29156;-63
2022/06/11 05:24:19;;;;;;;;;;;18.60;99.90;;;;;;4970478;28;33137;-63
2022/06/11 05:26:49;;;;;;;;;;;21.00;99.90;;;;;;4955801;28;26079;-62
2022/06/11 05:29:19;;;;;;;;;;;23.00;99.90;;;;;;4971668;28;26097;-62
2022/06/11 05:31:46;;;;;;;;;;;24.60;99.90;;;;;;4975802;28;26240;-62
2022/06/11 05:34:13;;;;;;;;;;;25.90;99.90;;;;;;4978810;28;26080;-62
2022/06/11 05:36:40;;;;;;;;;;;26.70;99.90;;;;;;4974332;28;25057;-62
2022/06/11 05:39:08;;;;;;;;;;;27.30;99.90;;;;;;4972308;28;29065;-63
2022/06/11 05:41:36;;;;;;;;;;;28.00;99.90;;;;;;4977301;28;28075;-63
2022/06/11 05:44:03;;;;;;;;;;;28.70;99.90;;;;;;5048824;28;25070;-63
2022/06/11 05:46:31;;;;;;;;;;;29.10;99.90;;;;;;5067605;28;19931;-63
2022/06/11 05:49:01;;;;;;;;;;;29.30;99.90;;;;;;5062030;28;19925;-63
2022/06/11 05:51:31;;;;;;;;;;;29.80;99.90;;;;;;5061691;28;20023;-63
2022/06/11 05:54:01;;;;;;;;;;;30.20;99.90;;;;;;5067551;28;19928;-64
2022/06/11 05:56:28;;;;;;;;;;;30.50;99.90;;;;;;5065127;28;20062;-63
2022/06/11 05:58:57;;;;;;;;;;;30.60;99.90;;;;;;5063026;28;19932;-63
2022/06/11 06:01:30;;;;;;;;;;;30.70;99.90;;;;;;5066362;28;19982;-64
2022/06/11 06:03:57;;;;;;;;;;;30.80;99.90;;;;;;5066912;28;19928;-64
2022/06/11 06:06:24;;;;;;;;;;;30.30;99.90;;;;;;5060488;28;20444;-64
2022/06/11 06:08:50;;;;;;;;;;;29.10;99.90;;;;;;5060556;28;19924;-63
2022/06/11 06:11:17;;;;;;;;;;;29.00;99.90;;;;;;5068007;28;20400;-64
2022/06/11 06:13:47;;;;;;;;;;;29.20;99.90;;;;;;5061282;28;20009;-63
2022/06/11 06:16:14;;;;;;;;;;;29.80;99.90;;;;;;5058197;28;19935;-63
2022/06/11 06:18:41;;;;;;;;;;;30.40;99.90;;;;;;5062298;28;19986;-63
2022/06/11 06:21:08;;;;;;;;;;;30.40;99.90;;;;;;5062514;28;19950;-63
2022/06/11 06:23:35;;;;;;;;;;;30.30;99.90;;;;;;5060022;28;19925;-64
2022/06/11 06:26:02;;;;;;;;;;;30.70;99.90;;;;;;5067536;28;19935;-64
2022/06/11 06:28:29;;;;;;;;;;;30.20;99.90;;;;;;5063561;28;20012;-64
2022/06/11 06:30:58;;;;;;;;;;;30.20;99.90;;;;;;5063873;28;19952;-64
2022/06/11 06:33:26;;;;;;;;;;;29.80;99.90;;;;;;5062526;28;19929;-64
2022/06/11 06:35:53;;;;;;;;;;;29.90;99.90;;;;;;5063193;28;19928;-64
2022/06/11 06:38:22;;;;;;;;;;;29.90;99.90;;;;;;5058453;28;20282;-63
2022/06/11 06:40:51;;;;;;;;;;;29.60;99.90;;;;;;5062696;28;20398;-64
2022/06/11 06:43:18;;;;;;;;;;;29.70;99.90;;;;;;5062992;28;19939;-64
2022/06/11 06:45:45;;;;;;;;;;;30.00;99.90;;;;;;5066941;28;20417;-64
2022/06/11 06:48:12;;;;;;;;;;;30.40;99.90;;;;;;5064312;28;19936;-64
2022/06/11 06:50:39;;;;;;;;;;;30.70;99.90;;;;;;5067182;28;19925;-63
2022/06/11 06:53:06;;;;;;;;;;;31.00;99.90;;;;;;5062517;28;20019;-63
2022/06/11 06:55:36;;;;;;;;;;;31.10;99.90;;;;;;5062702;28;19925;-64
2022/06/11 06:58:03;;;;;;;;;;;31.40;99.90;;;;;;5064614;28;20375;-64
2022/06/11 07:00:30;;;;;;;;;;;31.60;99.90;;;;;;5064401;28;19935;-63
2022/06/11 07:02:56;;;;;;;;;;;31.60;99.90;;;;;;5063292;28;20383;-64
2022/06/11 07:05:26;;;;;;;;;;;30.00;99.90;;;;;;5066349;28;19974;-63
2022/06/11 07:07:53;;;;;;;;;;;29.10;99.90;;;;;;5058354;28;19981;-63
2022/06/11 07:10:21;;;;;;;;;;;28.20;99.90;;;;;;5064371;28;20375;-64
2022/06/11 07:12:47;;;;;;;;;;;27.80;99.90;;;;;;5065921;28;20014;-63
2022/06/11 07:15:14;;;;;;;;;;;27.20;99.90;;;;;;5066142;28;19993;-63
2022/06/11 07:17:43;;;;;;;;;;;27.00;99.90;;;;;;5057054;28;19924;-63
2022/06/11 07:20:15;;;;;;;;;;;27.20;99.90;;;;;;5059376;28;20368;-63
2022/06/11 07:22:45;;;;;;;;;;;27.60;99.90;;;;;;5062185;28;19931;-64
2022/06/11 07:25:12;;;;;;;;;;;28.10;99.90;;;;;;5059839;28;19928;-64
2022/06/11 07:27:42;;;;;;;;;;;28.20;99.90;;;;;;5063848;28;19943;-64
2022/06/11 07:30:13;;;;;;;;;;;28.20;99.90;;;;;;5062287;28;20322;-64
2022/06/11 07:32:41;;;;;;;;;;;28.20;99.90;;;;;;5053748;28;19925;-63
2022/06/11 07:35:11;;;;;;;;;;;28.50;99.90;;;;;;5059044;28;20379;-65
2022/06/11 07:37:38;;;;;;;;;;;28.90;99.90;;;;;;5063438;28;20402;-64
2022/06/11 07:40:09;;;;;;;;;;;28.80;99.90;;;;;;5062422;28;19943;-64
2022/06/11 07:42:35;;;;;;;;;;;28.70;99.90;;;;;;5061483;28;19924;-64
2022/06/11 07:45:02;;;;;;;;;;;29.00;99.90;;;;;;5062438;28;19935;-64
2022/06/11 07:50:25;;;;;;;;;;;30.70;99.90;;;;;;5061092;28;20511;-64
2022/06/11 07:52:52;;;;;;;;;;;31.10;99.90;;;;;;5061806;28;19929;-64
2022/06/11 07:55:19;;;;;;;;;;;31.30;99.90;;;;;;5064490;28;19932;-64
2022/06/11 07:57:46;;;;;;;;;;;31.40;99.90;;;;;;5060026;28;19928;-65
2022/06/11 08:00:15;;;;;;;;;;;31.20;99.90;;;;;;5069205;28;19924;-65
2022/06/11 08:02:42;;;;;;;;;;;31.30;99.90;;;;;;5063491;28;19924;-64
2022/06/11 08:05:09;;;;;;;;;;;31.50;99.90;;;;;;5065608;28;20037;-66
2022/06/11 08:07:36;;;;;;;;;;;31.50;99.90;;;;;;5069505;28;19928;-65
2022/06/11 08:10:03;;;;;;;;;;;31.70;99.90;;;;;;5067303;28;19928;-64
2022/06/11 08:12:29;;;;;;;;;;;31.60;99.90;;;;;;5059965;28;19935;-64
2022/06/11 08:14:59;;;;;;;;;;;31.80;99.90;;;;;;5063783;28;20023;-64
2022/06/11 08:17:30;;;;;;;;;;;31.50;99.90;;;;;;5067348;28;19928;-65
2022/06/11 08:19:57;;;;;;;;;;;31.60;99.90;;;;;;5066716;28;19925;-64
2022/06/11 08:22:24;;;;;;;;;;;31.70;99.90;;;;;;5065056;28;19925;-63
2022/06/11 08:24:51;;;;;;;;;;;31.80;99.90;;;;;;5067938;28;19931;-65
2022/06/11 08:27:17;;;;;;;;;;;31.10;99.40;;;;;;5062122;28;19931;-65
2022/06/11 08:29:45;;;;;;;;;;;31.00;99.90;;;;;;5065354;28;19924;-64
2022/06/11 08:32:15;;;;;;;;;;;30.20;99.90;;;;;;5060568;28;19932;-64
2022/06/11 08:34:44;;;;;;;;;;;30.10;99.90;;;;;;5069107;28;20670;-64
2022/06/11 08:37:11;;;;;;;;;;;29.80;99.90;;;;;;5066720;28;20022;-66
2022/06/11 08:39:38;;;;;;;;;;;30.20;99.90;;;;;;5067127;28;20022;-65
2022/06/11 08:42:07;;;;;;;;;;;30.60;99.90;;;;;;5066943;28;19925;-64
2022/06/11 08:44:36;;;;;;;;;;;31.00;99.90;;;;;;5062502;28;19958;-64
2022/06/11 08:47:06;;;;;;;;;;;31.10;99.40;;;;;;5059236;28;19934;-65
2022/06/11 08:49:38;;;;;;;;;;;30.50;98.90;;;;;;5061395;28;20287;-66
2022/06/11 08:52:07;;;;;;;;;;;29.80;98.70;;;;;;5066406;28;19946;-65
2022/06/11 08:54:40;;;;;;;;;;;30.00;99.90;;;;;;5065136;28;19932;-65
2022/06/11 08:57:16;;;;;;;;;;;29.70;99.50;;;;;;5062993;28;20570;-64
2022/06/11 09:00:02;;;;;;;;;;;29.60;99.90;;;;;;5061840;28;19935;-64
2022/06/11 09:02:40;;;;;;;;;;;29.00;99.90;;;;;;5059988;28;19939;-64
2022/06/11 09:05:10;;;;;;;;;;;29.60;99.90;;;;;;5057411;28;19928;-65
2022/06/11 09:07:52;;;;;;;;;;;29.90;99.90;;;;;;5063786;28;19928;-65
2022/06/11 09:10:27;;;;;;;;;;;30.50;99.90;;;;;;5065081;28;19925;-64
2022/06/11 09:12:54;;;;;;;;;;;31.00;99.30;;;;;;5059989;28;20015;-65
2022/06/11 09:15:39;;;;;;;;;;;30.40;98.70;;;;;;5056194;28;19931;-65
2022/06/11 09:18:17;;;;;;;;;;;30.90;99.50;;;;;;5066548;28;19960;-65
2022/06/11 09:21:00;;;;;;;;;;;30.70;99.10;;;;;;5063891;28;20275;-65
2022/06/11 09:23:30;;;;;;;;;;;30.90;99.90;;;;;;5060196;28;19979;-65
2022/06/11 09:26:14;;;;;;;;;;;31.70;98.20;;;;;;5057632;28;20035;-66
2022/06/11 09:28:41;;;;;;;;;;;32.00;98.80;;;;;;5062944;28;20559;-65
2022/06/11 09:31:11;;;;;;;;;;;31.50;97.80;;;;;;5068717;28;20489;-66
2022/06/11 09:33:42;;;;;;;;;;;30.60;98.80;;;;;;5059465;28;20427;-66
2022/06/11 09:36:16;;;;;;;;;;;30.90;98.70;;;;;;5066787;28;20264;-64
2022/06/11 09:39:06;;;;;;;;;;;30.40;98.70;;;;;;5058115;28;19990;-65
2022/06/11 09:41:42;;;;;;;;;;;30.30;99.40;;;;;;5052658;28;19928;-65
2022/06/11 09:44:15;;;;;;;;;;;30.60;98.50;;;;;;5059552;28;19925;-64
2022/06/11 09:47:01;;;;;;;;;;;30.20;97.80;;;;;;5055719;28;19931;-65
2022/06/11 09:49:38;;;;;;;;;;;29.90;97.30;;;;;;5056367;28;19947;-65
2022/06/11 09:52:08;;;;;;;;;;;30.10;98.20;;;;;;5066124;28;19932;-65
2022/06/11 09:54:46;;;;;;;;;;;30.90;96.60;;;;;;5062534;28;19928;-65
2022/06/11 09:57:31;;;;;;;;;;;30.90;97.30;;;;;;5064886;28;20023;-64
2022/06/11 10:00:00;;;;;;;;;;;31.40;96.90;;;;;;5065431;28;20023;-65
2022/06/11 10:02:37;;;;;;;;;;;32.00;96.70;;;;;;5064651;28;19924;-65
2022/06/11 10:05:18;;;;;;;;;;;32.80;96.00;;;;;;5058421;28;19926;-65
2022/06/11 10:07:47;;;;;;;;;;;33.80;95.20;;;;;;5059807;28;19970;-64
2022/06/11 10:10:20;;;;;;;;;;;33.30;95.10;;;;;;5056850;28;20042;-65
2022/06/11 10:12:49;;;;;;;;;;;32.90;95.00;;;;;;5060752;28;20026;-64
2022/06/11 10:15:24;;;;;;;;;;;32.50;97.00;;;;;;5054747;28;19924;-64
2022/06/11 10:18:00;;;;;;;;;;;32.70;95.50;;;;;;5061800;28;19925;-65
2022/06/11 10:20:42;;;;;;;;;;;32.20;96.20;;;;;;5060618;28;19925;-65
2022/06/11 10:23:30;;;;;;;;;;;32.50;95.70;;;;;;5062228;28;19928;-65
2022/06/11 10:25:57;;;;;;;;;;;32.30;95.10;;;;;;5064999;28;19940;-65
2022/06/11 10:28:42;;;;;;;;;;;32.60;95.20;;;;;;5063889;28;19936;-64
2022/06/11 10:31:16;;;;;;;;;;;33.10;95.20;;;;;;5061522;28;20435;-65
2022/06/11 10:33:49;;;;;;;;;;;33.90;95.50;;;;;;5061197;28;20023;-66
2022/06/11 10:36:18;;;;;;;;;;;34.10;94.20;;;;;;5060589;28;20023;-65
2022/06/11 10:38:57;;;;;;;;;;;34.30;93.50;;;;;;5059207;28;19930;-64
2022/06/11 10:41:28;;;;;;;;;;;33.60;93.50;;;;;;5063782;28;19964;-63
2022/06/11 10:44:03;;;;;;;;;;;32.60;94.20;;;;;;5064917;28;20413;-64
2022/06/11 10:46:35;;;;;;;;;;;31.50;95.60;;;;;;5068196;28;20509;-63
2022/06/11 10:49:02;;;;;;;;;;;31.20;95.50;;;;;;5065511;28;20558;-64
2022/06/11 10:51:31;;;;;;;;;;;31.60;96.80;;;;;;5060103;28;19989;-65
2022/06/11 10:54:01;;;;;;;;;;;32.30;95.70;;;;;;5061501;28;20344;-65
2022/06/11 10:56:44;;;;;;;;;;;32.50;94.50;;;;;;5066084;28;19939;-64
2022/06/11 10:59:16;;;;;;;;;;;32.90;95.10;;;;;;5066726;28;20023;-64
2022/06/11 11:02:02;;;;;;;;;;;33.50;94.20;;;;;;5060983;28;19924;-65
2022/06/11 11:04:36;;;;;;;;;;;33.50;93.70;;;;;;5056950;28;19931;-65
2022/06/11 11:07:11;;;;;;;;;;;34.00;93.80;;;;;;5059361;28;20527;-66
2022/06/11 11:09:41;;;;;;;;;;;34.10;95.30;;;;;;5063922;28;19924;-64
2022/06/11 11:12:16;;;;;;;;;;;34.40;93.90;;;;;;5063846;28;20019;-64
2022/06/11 11:14:44;;;;;;;;;;;34.70;93.80;;;;;;5065267;28;19975;-66
2022/06/11 11:17:31;;;;;;;;;;;35.40;94.00;;;;;;5054761;28;20459;-65
2022/06/11 11:20:32;;;;;;;;;;;35.20;92.60;;;;;;5063087;28;19925;-66
2022/06/11 11:23:17;;;;;;;;;;;35.40;93.30;;;;;;5059818;28;19971;-64
2022/06/11 11:25:49;;;;;;;;;;;35.10;92.80;;;;;;5057434;28;19940;-64
2022/06/11 11:28:19;;;;;;;;;;;34.40;92.20;;;;;;5061138;28;20349;-65
2022/06/11 11:30:46;;;;;;;;;;;34.00;91.80;;;;;;5058237;28;19925;-65
2022/06/11 11:33:21;;;;;;;;;;;33.90;92.40;;;;;;5060550;28;19990;-64
2022/06/11 11:35:49;;;;;;;;;;;34.00;92.90;;;;;;5058910;28;19971;-65
2022/06/11 11:38:25;;;;;;;;;;;33.00;92.80;;;;;;5066985;28;20027;-64
2022/06/11 11:40:53;;;;;;;;;;;33.00;93.00;;;;;;5072488;28;19931;-64
2022/06/11 11:43:21;;;;;;;;;;;32.90;93.30;;;;;;5060087;28;19932;-64
2022/06/11 11:45:56;;;;;;;;;;;32.40;93.90;;;;;;5069008;28;19983;-65
2022/06/11 11:48:29;;;;;;;;;;;32.70;93.40;;;;;;5058503;28;19929;-65
2022/06/11 11:50:59;;;;;;;;;;;33.00;92.70;;;;;;5072135;28;19924;-64
2022/06/11 11:53:28;;;;;;;;;;;33.40;92.60;;;;;;5064737;28;20383;-64
2022/06/11 11:56:00;;;;;;;;;;;33.10;92.90;;;;;;5063235;28;20019;-65
2022/06/11 11:58:48;;;;;;;;;;;32.70;93.00;;;;;;5060840;28;20315;-64
2022/06/11 12:01:22;;;;;;;;;;;32.00;93.10;;;;;;5063622;28;20024;-64
2022/06/11 12:03:58;;;;;;;;;;;32.00;93.40;;;;;;5069731;28;19930;-65
2022/06/11 12:06:34;;;;;;;;;;;32.60;93.20;;;;;;5075497;28;20463;-64
2022/06/11 12:09:07;;;;;;;;;;;33.40;94.10;;;;;;5057831;28;19943;-65
2022/06/11 12:11:37;;;;;;;;;;;33.90;93.20;;;;;;5067124;28;19928;-65
2022/06/11 12:14:06;;;;;;;;;;;34.00;92.80;;;;;;5069756;28;20158;-64
2022/06/11 12:16:39;;;;;;;;;;;33.70;92.90;;;;;;5072507;28;19924;-63
2022/06/11 12:19:16;;;;;;;;;;;33.60;92.60;;;;;;5066237;28;19924;-64
2022/06/11 12:21:44;;;;;;;;;;;32.40;92.90;;;;;;5054241;28;20015;-64
2022/06/11 12:24:14;;;;;;;;;;;32.30;93.10;;;;;;5067173;28;20016;-64
2022/06/11 12:26:44;;;;;;;;;;;32.00;93.20;;;;;;5062772;28;20048;-65
2022/06/11 12:29:16;;;;;;;;;;;32.30;94.50;;;;;;5071241;28;19925;-64
2022/06/11 12:31:43;;;;;;;;;;;32.30;92.70;;;;;;5058798;28;20364;-64
2022/06/11 12:34:14;;;;;;;;;;;31.90;93.10;;;;;;5070442;28;19932;-64
2022/06/11 12:36:53;;;;;;;;;;;31.90;93.30;;;;;;5066436;28;20406;-64
2022/06/11 12:39:38;;;;;;;;;;;31.60;93.50;;;;;;5061613;28;19975;-64
2022/06/11 12:42:24;;;;;;;;;;;31.90;93.60;;;;;;5067386;28;19928;-62
2022/06/11 12:45:09;;;;;;;;;;;31.40;93.50;;;;;;5063141;28;19924;-62
2022/06/11 12:47:40;;;;;;;;;;;30.70;94.10;;;;;;5065663;28;20011;-64
2022/06/11 12:50:33;;;;;;;;;;;30.50;94.90;;;;;;5070083;28;19925;-63
2022/06/11 12:53:17;;;;;;;;;;;30.50;95.60;;;;;;5070999;28;19924;-64
2022/06/11 12:56:04;;;;;;;;;;;31.00;94.50;;;;;;5062783;28;19931;-64
2022/06/11 12:59:02;;;;;;;;;;;31.60;94.30;;;;;;5071277;28;19971;-64
2022/06/11 13:01:47;;;;;;;;;;;32.10;93.80;;;;;;5063613;28;20011;-65
2022/06/11 13:04:20;;;;;;;;;;;32.50;93.00;;;;;;5058886;28;19936;-64
2022/06/11 13:07:14;;;;;;;;;;;32.70;92.80;;;;;;5059159;28;20342;-64
2022/06/11 13:10:16;;;;;;;;;;;32.40;93.00;;;;;;5063952;28;21447;-63
2022/06/11 13:12:51;;;;;;;;;;;31.90;92.90;;;;;;5017020;28;19936;-63
2022/06/11 13:15:21;;;;;;;;;;;31.20;93.30;;;;;;5036633;28;19937;-63
2022/06/11 13:18:05;;;;;;;;;;;30.90;93.90;;;;;;5022689;28;19925;-63
2022/06/11 13:20:54;;;;;;;;;;;30.60;93.80;;;;;;5039288;28;19929;-63
2022/06/11 13:23:32;;;;;;;;;;;30.50;94.20;;;;;;5034791;28;19932;-64
2022/06/11 13:26:04;;;;;;;;;;;30.80;93.80;;;;;;5043642;28;20024;-63
2022/06/11 13:28:49;;;;;;;;;;;30.80;93.60;;;;;;5041824;28;20387;-64
2022/06/11 13:31:23;;;;;;;;;;;30.90;93.90;;;;;;5045211;28;19980;-64
2022/06/11 13:34:08;;;;;;;;;;;30.80;94.10;;;;;;5042021;28;20011;-63
2022/06/11 13:36:38;;;;;;;;;;;30.30;94.40;;;;;;5045629;28;20533;-62
2022/06/11 13:39:31;;;;;;;;;;;30.20;95.00;;;;;;5042065;28;19961;-64
2022/06/11 13:42:07;;;;;;;;;;;30.70;94.30;;;;;;4966321;28;19939;-64
2022/06/11 13:44:38;;;;;;;;;;;31.20;94.80;;;;;;4959611;28;20025;-64
2022/06/11 13:47:07;;;;;;;;;;;31.80;93.50;;;;;;4986934;28;19978;-64
2022/06/11 13:49:43;;;;;;;;;;;32.10;93.80;;;;;;5006848;28;20024;-62
2022/06/11 13:52:15;;;;;;;;;;;32.40;93.30;;;;;;5005455;28;19925;-64
2022/06/11 13:57:36;;;;;;;;;;;32.40;93.10;;;;;;5002156;28;20056;-62
2022/06/11 14:00:08;;;;;;;;;;;32.70;93.00;;;;;;5007200;28;20020;-63
2022/06/11 14:02:35;;;;;;;;;;;32.80;93.10;;;;;;5007308;28;22378;-63
2022/06/11 14:05:03;;;;;;;;;;;32.30;92.20;;;;;;5006570;28;19933;-64
2022/06/11 14:07:33;;;;;;;;;;;31.90;92.70;;;;;;5001012;28;19925;-64
2022/06/11 14:10:28;;;;;;;;;;;31.60;92.70;;;;;;5003597;28;20020;-63
2022/06/11 14:12:55;;;;;;;;;;;31.60;93.10;;;;;;4998678;28;19967;-64
2022/06/11 14:15:34;;;;;;;;;;;31.90;93.30;;;;;;4984542;28;19926;-65
2022/06/11 14:18:06;;;;;;;;;;;32.30;92.70;;;;;;5012775;28;19928;-63
2022/06/11 14:20:35;;;;;;;;;;;32.80;92.60;;;;;;5065723;28;19924;-64
2022/06/11 14:23:03;;;;;;;;;;;32.30;92.10;;;;;;5066195;28;19924;-64
2022/06/11 14:25:33;;;;;;;;;;;31.30;92.90;;;;;;5062654;28;19971;-64
2022/06/11 14:28:15;;;;;;;;;;;30.90;93.70;;;;;;5056820;28;19932;-64
2022/06/11 14:30:48;;;;;;;;;;;31.60;93.50;;;;;;5058600;28;19932;-63
2022/06/11 14:33:18;;;;;;;;;;;33.10;92.70;;;;;;5064461;28;19924;-63
2022/06/11 14:35:48;;;;;;;;;;;32.90;91.80;;;;;;5064486;28;20625;-64
2022/06/11 14:38:20;;;;;;;;;;;33.20;92.70;;;;;;5067333;28;19931;-64
2022/06/11 14:41:19;;;;;;;;;;;33.90;92.10;;;;;;5061789;28;19964;-64
2022/06/11 14:43:52;;;;;;;;;;;34.70;91.40;;;;;;5063065;28;19932;-63
2022/06/11 14:46:31;;;;;;;;;;;34.70;90.90;;;;;;5063587;28;19982;-64
2022/06/11 14:48:58;;;;;;;;;;;34.00;91.50;;;;;;5061883;28;19925;-63
2022/06/11 14:51:26;;;;;;;;;;;34.10;91.80;;;;;;5058128;28;19925;-64